Time;durP1;ratioP1;P1;durP2;ratioP2;P2;SDS_P1;SDS_P2;PMS_P1;PMS_P2;Temp;Humidity;BMP_temperature;BMP_pressure;BME280_temperature;BME280_humidity;BME280_pressure;Samples;Min_cycle;Max_cycle;Signal;HPM_P1;HPM_P2
2022/07/20 00:01:16;;;;;;;5.70;2.70;;;21.70;56.30;;;;;;5086425;28;20032;-81
2022/07/20 00:03:42;;;;;;;4.65;2.50;;;21.60;56.40;;;;;;5060408;28;20032;-81
2022/07/20 00:06:08;;;;;;;3.05;2.60;;;21.60;56.50;;;;;;5091369;28;20066;-81
2022/07/20 00:11:21;;;;;;;4.47;2.47;;;21.50;57.00;;;;;;5089242;28;20028;-80
2022/07/20 00:13:49;;;;;;;3.53;2.25;;;21.40;57.40;;;;;;5080139;28;20036;-81
2022/07/20 00:16:14;;;;;;;3.25;2.47;;;21.40;57.60;;;;;;5096070;28;20067;-81
2022/07/20 00:18:40;;;;;;;3.22;2.42;;;21.40;57.70;;;;;;5080571;28;20512;-81
2022/07/20 00:21:06;;;;;;;4.15;2.53;;;21.30;57.80;;;;;;5067980;28;20035;-80
2022/07/20 00:23:32;;;;;;;4.78;2.80;;;21.30;58.40;;;;;;5096373;28;20149;-80
2022/07/20 00:25:57;;;;;;;3.75;2.58;;;21.20;58.00;;;;;;5085677;28;20048;-80
2022/07/20 00:28:23;;;;;;;6.10;2.55;;;21.10;58.10;;;;;;5082914;28;20060;-81
2022/07/20 00:30:49;;;;;;;2.85;2.50;;;21.10;58.40;;;;;;5070637;28;20457;-81
2022/07/20 00:33:14;;;;;;;2.97;2.53;;;21.00;58.60;;;;;;5086639;28;20048;-80
2022/07/20 00:35:40;;;;;;;4.80;2.60;;;20.90;58.80;;;;;;5093162;28;20047;-80
2022/07/20 00:38:06;;;;;;;8.15;2.95;;;20.90;59.00;;;;;;5068198;28;20032;-81
2022/07/20 00:40:32;;;;;;;4.32;2.63;;;20.80;59.50;;;;;;5087909;28;20067;-80
2022/07/20 00:42:57;;;;;;;6.65;3.05;;;20.80;59.40;;;;;;5071698;28;20220;-79
2022/07/20 00:45:23;;;;;;;5.13;2.72;;;20.70;59.50;;;;;;5075722;28;20036;-79
2022/07/20 00:47:51;;;;;;;4.95;2.35;;;20.70;59.60;;;;;;5075485;28;20031;-80
2022/07/20 00:50:17;;;;;;;4.50;2.95;;;20.60;59.60;;;;;;5059083;28;20032;-80
2022/07/20 00:52:43;;;;;;;3.85;2.80;;;20.60;59.80;;;;;;5074899;28;20036;-80
2022/07/20 00:55:09;;;;;;;7.75;3.05;;;20.60;59.90;;;;;;5092664;28;20034;-80
2022/07/20 00:57:35;;;;;;;6.90;2.92;;;20.50;60.00;;;;;;5068003;28;20050;-80
2022/07/20 01:00:04;;;;;;;4.22;2.80;;;20.50;60.10;;;;;;5053872;28;20040;-80
2022/07/20 01:02:30;;;;;;;2.90;2.50;;;20.50;60.30;;;;;;5066898;28;20039;-81
2022/07/20 01:04:56;;;;;;;3.40;2.53;;;20.40;60.30;;;;;;5057807;28;20036;-79
2022/07/20 01:07:22;;;;;;;7.10;2.55;;;20.40;60.40;;;;;;5056269;28;20508;-81
2022/07/20 01:09:48;;;;;;;4.90;2.67;;;20.40;60.50;;;;;;5071592;28;20032;-80
2022/07/20 01:12:13;;;;;;;3.92;2.55;;;20.30;60.40;;;;;;5069160;28;20441;-80
2022/07/20 01:14:39;;;;;;;3.08;2.20;;;20.40;60.60;;;;;;5075033;28;20109;-80
2022/07/20 01:17:05;;;;;;;3.53;2.50;;;20.30;60.70;;;;;;5086705;28;20031;-81
2022/07/20 01:19:31;;;;;;;5.80;2.70;;;20.30;61.10;;;;;;5075524;28;20036;-80
2022/07/20 01:21:57;;;;;;;3.65;2.92;;;20.20;61.20;;;;;;5084991;28;20467;-80
2022/07/20 01:24:22;;;;;;;4.85;2.45;;;20.20;61.60;;;;;;5078544;28;20150;-80
2022/07/20 01:26:48;;;;;;;4.28;2.90;;;20.20;61.60;;;;;;5062669;28;20085;-80
2022/07/20 01:29:14;;;;;;;5.13;3.00;;;20.10;61.70;;;;;;5083569;28;20424;-80
2022/07/20 01:31:40;;;;;;;6.45;3.20;;;20.00;62.20;;;;;;5095825;28;20081;-80
2022/07/20 01:34:06;;;;;;;6.88;3.35;;;20.00;62.60;;;;;;5073941;28;20449;-80
2022/07/20 01:36:32;;;;;;;4.80;2.83;;;20.00;62.50;;;;;;5074190;28;20024;-81
2022/07/20 01:38:58;;;;;;;2.72;2.40;;;19.90;62.40;;;;;;5090885;28;21005;-81
2022/07/20 01:41:24;;;;;;;5.05;2.90;;;19.80;62.50;;;;;;5071382;28;20060;-80
2022/07/20 01:43:50;;;;;;;4.35;2.80;;;19.80;62.90;;;;;;5099944;28;20424;-80
2022/07/20 01:46:16;;;;;;;3.90;2.70;;;19.80;63.40;;;;;;5074799;28;20039;-81
2022/07/20 01:48:42;;;;;;;4.10;3.10;;;19.70;63.10;;;;;;5058048;28;20119;-79
2022/07/20 01:51:08;;;;;;;3.42;2.50;;;19.70;63.30;;;;;;5057708;28;20562;-80
2022/07/20 01:53:34;;;;;;;4.03;2.80;;;19.70;63.60;;;;;;5056777;28;20032;-80
2022/07/20 01:56:00;;;;;;;6.85;3.10;;;19.60;63.70;;;;;;5091233;28;20531;-80
2022/07/20 01:58:26;;;;;;;4.10;2.70;;;19.60;63.80;;;;;;5091807;28;20047;-79
2022/07/20 02:00:52;;;;;;;2.83;2.50;;;19.60;63.90;;;;;;5089853;28;20064;-80
2022/07/20 02:03:18;;;;;;;5.13;2.80;;;19.50;63.60;;;;;;5070829;28;20465;-80
2022/07/20 02:05:44;;;;;;;9.10;3.30;;;19.50;64.60;;;;;;5068540;28;20024;-80
2022/07/20 02:08:09;;;;;;;4.15;2.85;;;19.40;65.50;;;;;;5094586;28;20439;-80
2022/07/20 02:10:35;;;;;;;3.83;3.03;;;19.40;65.30;;;;;;5084255;28;20036;-80
2022/07/20 02:13:01;;;;;;;3.15;2.85;;;19.40;65.40;;;;;;5070593;28;20032;-81
2022/07/20 02:18:13;;;;;;;7.20;2.92;;;19.40;65.50;;;;;;5098346;28;20040;-81
2022/07/20 02:20:40;;;;;;;5.75;3.35;;;19.40;66.20;;;;;;5082660;28;20379;-81
2022/07/20 02:23:08;;;;;;;3.70;2.70;;;19.30;66.60;;;;;;5113074;28;20439;-81
2022/07/20 02:25:36;;;;;;;6.20;2.88;;;19.20;66.10;;;;;;5099373;28;20478;-80
2022/07/20 02:28:02;;;;;;;4.65;3.33;;;19.20;66.00;;;;;;5090271;28;20039;-81
2022/07/20 02:30:28;;;;;;;6.40;2.92;;;19.10;66.30;;;;;;5071315;28;20032;-82
2022/07/20 02:32:54;;;;;;;3.08;2.67;;;19.10;67.60;;;;;;5066508;28;20685;-81
2022/07/20 02:35:19;;;;;;;4.72;2.88;;;19.00;67.60;;;;;;5066077;28;20029;-82
2022/07/20 02:37:45;;;;;;;3.55;2.70;;;19.00;67.50;;;;;;5100485;28;20394;-81
2022/07/20 02:40:11;;;;;;;6.55;3.20;;;18.90;68.70;;;;;;5089463;28;20024;-81
2022/07/20 02:42:37;;;;;;;6.40;2.75;;;18.90;68.50;;;;;;5089600;28;20107;-81
2022/07/20 02:45:03;;;;;;;6.72;2.95;;;18.80;68.40;;;;;;5061358;28;20390;-82
2022/07/20 02:47:29;;;;;;;3.95;3.00;;;18.80;68.80;;;;;;5079064;28;20058;-81
2022/07/20 02:49:54;;;;;;;4.18;2.80;;;18.80;68.70;;;;;;5093593;28;20055;-81
2022/07/20 02:52:20;;;;;;;3.40;2.60;;;18.70;68.30;;;;;;5065747;28;20022;-81
2022/07/20 02:54:46;;;;;;;5.38;2.88;;;18.70;68.30;;;;;;5091106;28;20081;-81
2022/07/20 02:57:11;;;;;;;4.53;2.80;;;18.70;68.30;;;;;;5090941;28;20052;-81
2022/07/20 02:59:37;;;;;;;2.92;2.50;;;18.70;69.30;;;;;;5091050;28;20051;-81
2022/07/20 03:02:03;;;;;;;3.75;2.90;;;18.70;68.60;;;;;;5083589;28;20032;-81
2022/07/20 03:04:29;;;;;;;4.38;2.90;;;18.60;68.70;;;;;;5074652;28;20705;-80
2022/07/20 03:06:54;;;;;;;4.47;3.45;;;18.60;68.70;;;;;;5091752;28;20402;-82
2022/07/20 03:09:20;;;;;;;3.28;2.92;;;18.60;68.70;;;;;;5094949;28;20403;-81
2022/07/20 03:11:46;;;;;;;5.60;2.90;;;18.60;68.90;;;;;;5088344;28;20032;-81
2022/07/20 03:14:11;;;;;;;3.78;3.35;;;18.60;68.90;;;;;;5083589;28;20070;-80
2022/07/20 03:16:37;;;;;;;4.28;2.38;;;18.60;69.20;;;;;;5082257;28;20039;-81
2022/07/20 03:19:03;;;;;;;3.13;2.55;;;18.60;69.30;;;;;;5091220;28;20089;-81
2022/07/20 03:21:29;;;;;;;5.47;3.47;;;18.60;68.90;;;;;;5091031;28;20036;-81
2022/07/20 03:23:55;;;;;;;3.38;2.95;;;18.60;68.70;;;;;;5087608;28;20031;-80
2022/07/20 03:26:22;;;;;;;3.28;2.67;;;18.60;68.70;;;;;;5081938;28;20039;-81
2022/07/20 03:28:48;;;;;;;4.22;2.53;;;18.60;68.70;;;;;;5069728;28;20032;-81
2022/07/20 03:31:13;;;;;;;3.20;2.83;;;18.60;68.70;;;;;;5086983;28;20028;-81
2022/07/20 03:33:39;;;;;;;3.42;2.70;;;18.60;68.80;;;;;;5074202;28;20101;-81
2022/07/20 03:36:05;;;;;;;2.60;2.40;;;18.60;69.20;;;;;;5073742;28;20175;-81
2022/07/20 03:38:31;;;;;;;4.03;3.08;;;18.50;69.30;;;;;;5056190;28;20035;-80
2022/07/20 03:40:57;;;;;;;3.78;2.90;;;18.50;69.40;;;;;;5088558;28;20039;-81
2022/07/20 03:43:25;;;;;;;3.22;2.88;;;18.50;69.60;;;;;;5080891;28;20107;-82
2022/07/20 03:45:53;;;;;;;3.42;3.10;;;18.50;69.90;;;;;;5078283;28;20032;-82
2022/07/20 03:48:19;;;;;;;10.05;3.35;;;18.40;70.10;;;;;;5099783;28;20038;-81
2022/07/20 03:50:46;;;;;;;5.70;2.95;;;18.40;70.40;;;;;;5093840;28;20123;-82
2022/07/20 03:53:13;;;;;;;4.30;3.13;;;18.40;70.40;;;;;;5094697;28;20067;-81
2022/07/20 03:55:39;;;;;;;4.63;3.03;;;18.40;70.40;;;;;;5079522;28;20019;-82
2022/07/20 03:58:04;;;;;;;3.72;3.10;;;18.40;70.80;;;;;;5096444;28;20107;-82
2022/07/20 04:00:30;;;;;;;3.10;2.75;;;18.40;71.20;;;;;;5094896;28;21227;-82
2022/07/20 04:02:57;;;;;;;4.32;2.90;;;18.40;71.50;;;;;;5078890;28;20486;-82
2022/07/20 04:05:23;;;;;;;5.55;3.15;;;18.30;71.90;;;;;;5087625;28;20031;-81
2022/07/20 04:07:49;;;;;;;5.07;3.17;;;18.30;71.70;;;;;;5101717;28;20031;-82
2022/07/20 04:10:15;;;;;;;4.97;3.15;;;18.40;72.00;;;;;;5097427;28;20036;-82
2022/07/20 04:12:41;;;;;;;5.30;3.20;;;18.40;72.70;;;;;;5073103;28;20020;-82
2022/07/20 04:15:07;;;;;;;7.15;3.50;;;18.30;73.00;;;;;;5061390;28;20056;-81
2022/07/20 04:17:33;;;;;;;4.68;3.20;;;18.30;72.90;;;;;;5068844;28;20028;-82
2022/07/20 04:19:59;;;;;;;6.65;3.10;;;18.30;73.40;;;;;;5092884;28;20039;-80
2022/07/20 04:22:24;;;;;;;4.65;3.47;;;18.30;73.30;;;;;;5078182;28;20059;-81
2022/07/20 04:24:50;;;;;;;8.75;3.55;;;18.30;74.00;;;;;;5067657;28;20039;-81
2022/07/20 04:27:16;;;;;;;5.50;3.55;;;18.30;74.20;;;;;;5073687;28;20648;-81
2022/07/20 04:29:42;;;;;;;5.43;3.50;;;18.30;73.70;;;;;;5062498;28;20093;-81
2022/07/20 04:32:08;;;;;;;4.30;3.30;;;18.40;73.70;;;;;;5099375;28;20065;-82
2022/07/20 04:34:34;;;;;;;6.57;3.45;;;18.40;74.70;;;;;;5093992;28;20027;-81
2022/07/20 04:36:59;;;;;;;7.53;4.00;;;18.50;75.10;;;;;;5077740;28;20111;-80
2022/07/20 04:39:26;;;;;;;5.43;3.80;;;18.50;75.20;;;;;;5084258;28;20039;-81
2022/07/20 04:41:52;;;;;;;6.50;3.92;;;18.50;74.90;;;;;;5059287;28;20413;-81
2022/07/20 04:44:19;;;;;;;5.20;3.90;;;18.50;74.60;;;;;;5078561;28;20032;-82
2022/07/20 04:46:45;;;;;;;8.05;4.05;;;18.60;74.10;;;;;;5077553;28;20040;-80
2022/07/20 04:49:11;;;;;;;4.93;3.63;;;18.60;74.50;;;;;;5056893;28;20059;-81
2022/07/20 04:51:37;;;;;;;4.18;3.47;;;18.60;74.40;;;;;;5072941;28;20517;-81
2022/07/20 04:54:04;;;;;;;5.30;3.63;;;18.70;74.60;;;;;;5055886;28;20024;-82
2022/07/20 04:56:29;;;;;;;8.73;3.35;;;18.80;75.10;;;;;;5069101;28;20132;-81
2022/07/20 04:58:55;;;;;;;4.75;3.28;;;18.80;74.50;;;;;;5082860;28;20059;-81
2022/07/20 05:01:22;;;;;;;8.35;3.88;;;18.90;74.90;;;;;;5064040;28;20562;-82
2022/07/20 05:03:49;;;;;;;9.27;3.70;;;19.00;75.10;;;;;;5059862;28;20036;-81
2022/07/20 05:06:15;;;;;;;7.80;3.63;;;19.00;75.00;;;;;;5093664;28;20040;-82
2022/07/20 05:08:41;;;;;;;5.70;3.65;;;19.10;74.40;;;;;;5100495;28;20032;-80
2022/07/20 05:11:06;;;;;;;4.47;3.20;;;19.20;73.60;;;;;;5067088;28;20120;-79
2022/07/20 05:13:32;;;;;;;4.03;3.55;;;19.30;73.70;;;;;;5076606;28;20092;-81
2022/07/20 05:15:58;;;;;;;9.65;3.50;;;19.40;74.10;;;;;;5060211;28;20032;-81
2022/07/20 05:18:24;;;;;;;4.90;3.30;;;19.50;73.60;;;;;;5065188;28;20402;-81
2022/07/20 05:20:50;;;;;;;5.47;4.07;;;19.50;73.80;;;;;;5070110;28;20494;-80
2022/07/20 05:23:15;;;;;;;4.38;3.50;;;19.60;73.90;;;;;;5073142;28;20426;-81
2022/07/20 05:25:41;;;;;;;5.72;3.40;;;19.80;73.90;;;;;;5042436;28;20442;-81
2022/07/20 05:28:07;;;;;;;3.63;3.33;;;19.90;73.70;;;;;;5072572;28;20482;-83
2022/07/20 05:30:33;;;;;;;5.03;3.15;;;20.00;73.70;;;;;;5089599;28;20048;-80
2022/07/20 05:32:59;;;;;;;5.10;4.03;;;20.20;73.10;;;;;;5091232;28;20032;-80
2022/07/20 05:35:25;;;;;;;3.97;3.25;;;20.40;73.50;;;;;;5075111;28;20050;-81
2022/07/20 05:37:51;;;;;;;5.70;3.95;;;20.60;72.60;;;;;;5092901;28;20639;-80
2022/07/20 05:40:18;;;;;;;4.28;3.30;;;20.90;72.00;;;;;;5056033;28;20040;-81
2022/07/20 05:42:43;;;;;;;5.15;3.50;;;21.30;71.30;;;;;;5058447;28;20095;-81
2022/07/20 05:45:10;;;;;;;4.47;3.67;;;21.80;71.30;;;;;;5091197;28;20059;-80
2022/07/20 05:47:35;;;;;;;6.15;3.88;;;22.20;67.20;;;;;;5080478;28;20087;-81
2022/07/20 05:50:01;;;;;;;7.80;4.00;;;22.70;65.50;;;;;;5083727;28;20777;-81
2022/07/20 05:52:27;;;;;;;3.92;3.15;;;23.20;62.40;;;;;;5071204;28;20498;-81
2022/07/20 05:54:53;;;;;;;3.33;2.83;;;23.80;61.40;;;;;;5075141;28;20035;-81
2022/07/20 05:57:18;;;;;;;5.43;3.28;;;24.40;63.30;;;;;;5058422;28;20460;-82
2022/07/20 05:59:44;;;;;;;5.55;3.65;;;25.00;60.00;;;;;;5076247;28;20405;-80
2022/07/20 06:02:10;;;;;;;4.95;3.17;;;25.50;57.90;;;;;;5075930;28;20036;-81
2022/07/20 06:04:37;;;;;;;3.28;2.97;;;26.00;56.40;;;;;;5091052;28;20031;-81
2022/07/20 06:07:03;;;;;;;3.55;3.25;;;26.50;54.70;;;;;;5089914;28;20055;-81
2022/07/20 06:09:29;;;;;;;6.25;3.25;;;26.90;53.80;;;;;;5084683;28;20658;-81
2022/07/20 06:11:55;;;;;;;5.55;3.85;;;27.30;53.20;;;;;;5079397;28;20016;-82
2022/07/20 06:14:21;;;;;;;4.70;3.33;;;27.60;52.40;;;;;;5073753;28;20039;-81
2022/07/20 06:16:46;;;;;;;4.57;3.28;;;27.80;51.80;;;;;;5085086;28;20020;-80
2022/07/20 06:19:12;;;;;;;3.97;3.30;;;28.10;50.80;;;;;;5085624;28;20051;-81
2022/07/20 06:21:38;;;;;;;4.13;3.72;;;28.50;49.80;;;;;;5070396;28;20550;-80
2022/07/20 06:24:04;;;;;;;4.32;3.10;;;28.80;49.70;;;;;;5055133;28;20058;-81
2022/07/20 06:26:30;;;;;;;4.25;3.00;;;29.10;49.30;;;;;;5073520;28;20064;-80
2022/07/20 06:28:56;;;;;;;3.05;2.65;;;29.40;47.90;;;;;;5056753;28;20078;-80
2022/07/20 06:31:22;;;;;;;3.83;3.22;;;29.70;46.50;;;;;;5048081;28;20067;-80
2022/07/20 06:33:47;;;;;;;3.22;2.92;;;30.10;45.90;;;;;;5070527;28;20028;-80
2022/07/20 06:36:13;;;;;;;3.60;3.25;;;30.30;46.10;;;;;;5095346;28;20021;-80
2022/07/20 06:38:39;;;;;;;3.30;3.03;;;30.50;46.20;;;;;;5051762;28;20555;-80
2022/07/20 06:41:05;;;;;;;5.25;3.13;;;30.80;45.50;;;;;;5033764;28;20035;-82
2022/07/20 06:43:30;;;;;;;4.40;3.20;;;31.00;45.10;;;;;;5082306;28;20103;-83
2022/07/20 06:45:56;;;;;;;7.50;3.13;;;31.30;45.60;;;;;;5055349;28;20028;-83
2022/07/20 06:48:22;;;;;;;3.78;2.88;;;31.70;44.20;;;;;;5072746;28;20501;-83
2022/07/20 06:50:48;;;;;;;4.78;3.55;;;31.90;43.90;;;;;;5101293;28;20044;-83
2022/07/20 06:53:14;;;;;;;5.30;3.10;;;32.20;43.20;;;;;;5056156;28;20053;-83
2022/07/20 06:55:40;;;;;;;3.35;2.85;;;32.40;43.10;;;;;;5074414;28;20111;-83
2022/07/20 06:58:06;;;;;;;3.85;3.45;;;32.30;43.80;;;;;;5073428;28;20173;-83
2022/07/20 07:00:32;;;;;;;4.88;2.97;;;32.40;43.70;;;;;;5055916;28;20119;-83
2022/07/20 07:02:57;;;;;;;4.18;2.90;;;32.40;43.90;;;;;;5047777;28;20020;-83
2022/07/20 07:05:23;;;;;;;3.83;3.10;;;32.30;44.30;;;;;;5080199;28;20490;-84
2022/07/20 07:07:49;;;;;;;3.67;3.10;;;32.20;44.30;;;;;;5071865;28;20653;-84
2022/07/20 07:10:15;;;;;;;3.38;2.90;;;32.30;44.60;;;;;;5078355;28;20117;-83
2022/07/20 07:12:41;;;;;;;3.20;2.90;;;32.30;44.80;;;;;;5071876;28;20039;-83
2022/07/20 07:15:07;;;;;;;6.60;3.42;;;32.40;43.10;;;;;;5052909;28;20036;-82
2022/07/20 07:17:33;;;;;;;4.57;2.92;;;32.60;44.00;;;;;;5055819;28;20028;-83
2022/07/20 07:19:59;;;;;;;4.32;2.75;;;32.80;42.60;;;;;;5052183;28;20490;-83
2022/07/20 07:22:26;;;;;;;4.68;2.90;;;32.80;41.80;;;;;;5080283;28;20035;-83
2022/07/20 07:24:53;;;;;;;4.00;2.97;;;32.80;40.30;;;;;;5071599;28;20118;-82
2022/07/20 07:27:19;;;;;;;4.43;2.55;;;33.10;41.30;;;;;;5084418;28;20031;-85
2022/07/20 07:29:45;;;;;;;6.22;3.38;;;33.50;39.70;;;;;;5070800;28;20040;-85
2022/07/20 07:32:11;;;;;;;4.47;2.92;;;33.50;39.90;;;;;;5070852;28;20047;-81
2022/07/20 07:34:37;;;;;;;4.20;2.95;;;33.40;40.70;;;;;;5071351;28;20359;-83
2022/07/20 07:37:02;;;;;;;7.82;3.25;;;33.40;38.20;;;;;;5039566;28;20405;-82
2022/07/20 07:39:28;;;;;;;2.97;2.75;;;32.90;39.30;;;;;;5056716;28;20033;-81
2022/07/20 07:41:54;;;;;;;3.42;2.58;;;32.40;41.30;;;;;;5072535;28;20056;-83
2022/07/20 07:44:20;;;;;;;4.35;3.20;;;32.20;41.90;;;;;;5065553;28;20068;-82
2022/07/20 07:46:46;;;;;;;4.25;2.78;;;32.10;42.60;;;;;;5067497;28;20047;-82
2022/07/20 07:49:11;;;;;;;4.32;2.70;;;32.30;42.40;;;;;;5081767;28;20043;-83
2022/07/20 07:51:37;;;;;;;3.42;2.80;;;32.50;41.60;;;;;;5051605;28;20115;-82
2022/07/20 07:54:04;;;;;;;5.53;2.90;;;32.40;40.70;;;;;;5067423;28;20077;-81
2022/07/20 07:56:30;;;;;;;4.90;3.08;;;32.50;41.00;;;;;;5047337;28;20454;-82
2022/07/20 07:58:56;;;;;;;4.03;2.70;;;32.60;41.50;;;;;;5086596;28;20035;-84
2022/07/20 08:01:21;;;;;;;3.35;2.75;;;32.80;41.80;;;;;;5064388;28;20428;-81
2022/07/20 08:03:47;;;;;;;7.32;4.65;;;32.80;39.80;;;;;;5068317;28;20028;-82
2022/07/20 08:06:13;;;;;;;5.25;2.78;;;32.10;40.70;;;;;;5072411;28;20039;-82
2022/07/20 08:08:39;;;;;;;5.35;2.88;;;32.00;42.10;;;;;;5029592;28;20035;-82
2022/07/20 08:11:05;;;;;;;5.70;3.10;;;32.00;42.50;;;;;;5083312;28;20126;-81
2022/07/20 08:13:31;;;;;;;3.78;2.78;;;31.90;43.20;;;;;;5068564;28;20497;-82
2022/07/20 08:15:57;;;;;;;3.03;2.72;;;32.00;43.80;;;;;;5082801;28;20110;-82
2022/07/20 08:18:23;;;;;;;3.20;2.60;;;32.20;42.50;;;;;;5052745;28;20514;-82
2022/07/20 08:20:49;;;;;;;4.15;2.63;;;32.20;41.20;;;;;;5068465;28;20067;-81
2022/07/20 08:23:15;;;;;;;5.50;2.63;;;31.90;38.40;;;;;;5058111;28;20059;-80
2022/07/20 08:25:41;;;;;;;3.78;2.63;;;31.70;39.00;;;;;;5058719;28;20474;-80
2022/07/20 08:28:15;;;;;;;4.78;2.42;;;31.70;39.90;;;;;;5059708;28;20032;-81
2022/07/20 08:30:43;;;;;;;4.28;2.67;;;31.70;37.20;;;;;;5091849;28;20028;-83
2022/07/20 08:33:09;;;;;;;4.25;2.28;;;31.70;37.40;;;;;;5081489;28;20477;-81
2022/07/20 08:35:35;;;;;;;5.47;2.58;;;31.90;37.60;;;;;;5077855;28;20063;-82
2022/07/20 08:38:01;;;;;;;2.65;1.90;;;32.10;38.30;;;;;;5077685;28;20027;-81
2022/07/20 08:40:28;;;;;;;3.42;2.13;;;32.10;37.80;;;;;;5066018;28;20016;-83
2022/07/20 08:42:54;;;;;;;4.10;2.47;;;32.10;37.50;;;;;;5043017;28;20032;-82
2022/07/20 08:45:23;;;;;;;5.55;2.50;;;32.10;37.70;;;;;;5060630;28;20465;-83
2022/07/20 08:47:50;;;;;;;6.80;2.42;;;32.00;38.40;;;;;;5080784;28;20664;-83
2022/07/20 08:50:28;;;;;;;3.35;2.47;;;32.00;37.60;;;;;;5058937;28;20507;-84
2022/07/20 08:52:55;;;;;;;3.10;2.80;;;32.00;38.30;;;;;;5085027;28;20043;-82
2022/07/20 08:55:21;;;;;;;4.53;2.40;;;32.00;37.20;;;;;;5085424;28;20031;-83
2022/07/20 08:57:47;;;;;;;6.30;2.70;;;32.00;37.40;;;;;;5051511;28;20067;-83
2022/07/20 09:00:14;;;;;;;3.83;2.40;;;32.00;37.80;;;;;;5054562;28;20032;-84
2022/07/20 09:03:03;;;;;;;3.83;2.88;;;32.20;37.50;;;;;;5075558;28;20031;-81
2022/07/20 09:05:34;;;;;;;3.92;2.45;;;32.20;36.70;;;;;;5075843;28;20080;-82
2022/07/20 09:08:01;;;;;;;4.20;2.45;;;32.30;38.50;;;;;;5091786;28;20107;-83
2022/07/20 09:10:38;;;;;;;4.60;2.70;;;32.50;38.00;;;;;;5048137;28;20036;-84
2022/07/20 09:13:08;;;;;;;2.95;2.33;;;32.70;38.70;;;;;;5088284;28;20747;-81
2022/07/20 09:15:40;;;;;;;5.53;2.60;;;32.80;35.40;;;;;;5084397;28;20031;-83
2022/07/20 09:18:18;;;;;;;3.80;2.53;;;32.80;34.30;;;;;;5078451;28;20028;-83
2022/07/20 09:20:55;;;;;;;5.53;2.42;;;32.50;35.00;;;;;;5051460;28;20059;-82
2022/07/20 09:23:26;;;;;;;5.25;2.50;;;32.40;35.30;;;;;;5094072;28;20032;-83
2022/07/20 09:25:53;;;;;;;4.45;2.40;;;32.20;35.40;;;;;;5074827;28;20066;-82
2022/07/20 09:28:20;;;;;;;5.15;2.67;;;32.20;36.30;;;;;;5072057;28;20153;-84
2022/07/20 09:30:50;;;;;;;3.97;2.55;;;32.20;35.30;;;;;;5071018;28;20032;-83
2022/07/20 09:33:26;;;;;;;4.72;2.30;;;32.20;35.00;;;;;;5071716;28;20062;-85
2022/07/20 09:35:53;;;;;;;5.00;2.38;;;32.10;34.90;;;;;;5077073;28;20031;-85
2022/07/20 09:38:20;;;;;;;3.03;2.50;;;32.20;35.10;;;;;;5073478;28;20791;-85
2022/07/20 09:40:46;;;;;;;4.38;2.38;;;32.40;37.30;;;;;;5036281;28;20127;-82
2022/07/20 09:43:31;;;;;;;6.22;2.70;;;32.50;37.20;;;;;;5086396;28;20032;-84
2022/07/20 09:46:10;;;;;;;4.72;2.72;;;32.70;35.50;;;;;;5062292;28;20028;-83
2022/07/20 09:48:55;;;;;;;5.00;2.40;;;32.90;36.30;;;;;;5075185;28;20029;-83
2022/07/20 09:51:30;;;;;;;3.55;2.58;;;33.10;35.50;;;;;;5053713;28;20024;-82
2022/07/20 09:53:58;;;;;;;;;;;33.10;34.00;;;;;;5077991;28;20689;-85
2022/07/20 09:56:25;;;;;;;4.22;2.17;;;33.20;34.10;;;;;;5071941;28;19948;-81
2022/07/20 09:58:53;;;;;;;4.60;2.63;;;33.20;34.00;;;;;;5070290;28;20217;-84
2022/07/20 10:01:31;;;;;;;2.92;2.63;;;33.00;33.60;;;;;;5082442;28;20125;-83
2022/07/20 10:03:59;;;;;;;4.40;2.45;;;32.90;33.40;;;;;;5073303;28;20028;-83
2022/07/20 10:06:26;;;;;;;3.95;2.28;;;32.90;34.40;;;;;;5062791;28;20028;-84
2022/07/20 10:08:53;;;;;;;5.35;2.50;;;33.00;35.80;;;;;;5042039;28;20522;-85
2022/07/20 10:11:21;;;;;;;4.20;2.25;;;33.10;35.90;;;;;;5068347;28;20024;-85
2022/07/20 10:13:50;;;;;;;2.25;2.05;;;33.20;34.00;;;;;;5095475;28;20028;-83
2022/07/20 10:16:26;;;;;;;4.75;2.45;;;33.20;32.00;;;;;;5048280;28;20028;-85
2022/07/20 10:18:54;;;;;;;3.38;2.33;;;33.20;33.90;;;;;;5088178;28;20032;-85
2022/07/20 10:21:38;;;;;;;4.47;2.40;;;33.20;32.90;;;;;;5086478;28;20039;-84
2022/07/20 10:24:27;;;;;;;3.47;2.30;;;33.30;34.40;;;;;;5088593;28;20215;-82
2022/07/20 10:27:15;;;;;;;7.43;2.60;;;33.30;32.90;;;;;;5084600;28;20074;-82
2022/07/20 10:29:46;;;;;;;4.00;2.20;;;33.30;33.20;;;;;;5090686;28;20245;-84
2022/07/20 10:32:25;;;;;;;4.40;2.17;;;33.20;33.60;;;;;;5070503;28;20115;-84
2022/07/20 10:34:58;;;;;;;5.05;2.80;;;33.30;33.40;;;;;;5083516;28;20024;-84
2022/07/20 10:37:36;;;;;;;5.20;2.42;;;33.30;34.20;;;;;;5040556;28;20494;-83
2022/07/20 10:40:25;;;;;;;5.60;2.67;;;33.30;33.80;;;;;;5072646;28;20054;-83
2022/07/20 10:43:10;;;;;;;4.32;2.45;;;33.40;33.10;;;;;;5055243;28;20032;-84
2022/07/20 10:45:36;;;;;;;5.30;2.27;;;33.50;32.40;;;;;;5061458;28;20032;-83
2022/07/20 10:48:11;;;;;;;3.55;2.67;;;33.50;33.70;;;;;;5076449;28;20032;-84
2022/07/20 10:50:48;;;;;;;8.52;2.83;;;33.50;33.20;;;;;;5083565;28;20462;-81
2022/07/20 10:53:14;;;;;;;4.15;2.33;;;33.50;33.50;;;;;;5072642;28;20034;-83
2022/07/20 10:55:47;;;;;;;4.20;2.28;;;33.50;33.10;;;;;;5089753;28;20027;-79
2022/07/20 10:58:16;;;;;;;4.30;2.40;;;33.50;33.00;;;;;;5079379;28;20032;-83
2022/07/20 11:00:49;;;;;;;6.70;2.50;;;33.40;34.30;;;;;;5049399;28;20118;-82
2022/07/20 11:03:27;;;;;;;5.22;2.25;;;33.50;33.90;;;;;;5066637;28;20027;-84
2022/07/20 11:06:01;;;;;;;6.22;2.35;;;33.60;30.90;;;;;;5065547;28;20036;-83
2022/07/20 11:08:27;;;;;;;3.92;2.55;;;33.60;32.20;;;;;;5069115;28;20035;-83
2022/07/20 11:10:54;;;;;;;3.88;2.20;;;33.60;31.80;;;;;;5076874;28;20020;-81
2022/07/20 11:13:20;;;;;;;4.35;2.28;;;33.60;31.80;;;;;;5084279;28;20055;-83
2022/07/20 11:15:48;;;;;;;5.13;2.50;;;33.70;33.70;;;;;;5066283;28;20088;-83
2022/07/20 11:18:16;;;;;;;4.68;2.70;;;33.70;33.10;;;;;;5070479;28;20036;-83
2022/07/20 11:20:54;;;;;;;5.50;2.65;;;33.70;32.10;;;;;;5051868;28;20669;-82
2022/07/20 11:23:26;;;;;;;15.68;7.85;;;33.70;34.10;;;;;;5069549;28;20716;-82
2022/07/20 11:25:57;;;;;;;2.47;2.10;;;33.80;32.90;;;;;;5056063;28;20036;-81
2022/07/20 11:28:25;;;;;;;3.97;2.17;;;33.90;32.70;;;;;;5071616;28;20043;-84
2022/07/20 11:30:53;;;;;;;4.00;2.40;;;34.00;31.40;;;;;;5083472;28;20027;-83
2022/07/20 11:33:32;;;;;;;5.88;2.58;;;34.10;31.50;;;;;;5064787;28;20024;-82
2022/07/20 11:36:28;;;;;;;5.18;2.13;;;34.20;30.90;;;;;;5087370;28;20036;-84
2022/07/20 11:38:59;;;;;;;5.22;2.17;;;34.30;30.30;;;;;;5074133;28;20036;-82
2022/07/20 11:41:34;;;;;;;2.50;2.10;;;34.40;30.60;;;;;;5058748;28;20032;-82
2022/07/20 11:44:01;;;;;;;5.38;2.15;;;34.40;30.00;;;;;;5080492;28;20031;-81
2022/07/20 11:46:29;;;;;;;6.50;2.38;;;34.50;30.50;;;;;;5073212;28;20027;-83
2022/07/20 11:49:02;;;;;;;5.78;2.10;;;34.60;30.00;;;;;;5078253;28;20033;-84
2022/07/20 11:51:29;;;;;;;4.15;2.30;;;34.60;29.60;;;;;;5049943;28;20089;-83
2022/07/20 11:53:56;;;;;;;3.17;2.38;;;34.70;30.10;;;;;;5094891;28;20013;-84
2022/07/20 11:56:27;;;;;;;2.75;2.13;;;34.70;29.40;;;;;;5069775;28;20032;-82
2022/07/20 11:58:55;;;;;;;3.63;2.13;;;34.70;30.00;;;;;;5052425;28;20078;-85
2022/07/20 12:01:22;;;;;;;3.65;2.38;;;34.60;29.50;;;;;;5067555;28;20035;-82
2022/07/20 12:03:57;;;;;;;7.20;2.70;;;34.70;29.70;;;;;;5082678;28;20166;-84
2022/07/20 12:06:26;;;;;;;3.78;2.25;;;34.60;29.60;;;;;;5063105;28;20139;-83
2022/07/20 12:09:16;;;;;;;5.90;2.53;;;34.70;30.00;;;;;;5069400;28;20040;-82
2022/07/20 12:12:06;;;;;;;2.78;1.88;;;34.70;28.40;;;;;;5074460;28;20099;-83
2022/07/20 12:14:42;;;;;;;4.07;2.22;;;34.80;27.70;;;;;;5070711;28;20132;-84
2022/07/20 12:17:23;;;;;;;5.00;2.40;;;34.90;29.10;;;;;;5094412;28;20035;-82
2022/07/20 12:19:52;;;;;;;5.57;2.25;;;35.00;28.30;;;;;;5083085;28;20027;-83
2022/07/20 12:22:34;;;;;;;5.88;2.70;;;35.20;28.60;;;;;;5063049;28;20057;-83
2022/07/20 12:25:03;;;;;;;4.47;2.55;;;35.30;27.50;;;;;;5058885;28;20135;-84
2022/07/20 12:27:31;;;;;;;10.85;2.63;;;35.40;27.80;;;;;;5065657;28;20738;-83
2022/07/20 12:29:58;;;;;;;3.67;2.03;;;35.40;27.50;;;;;;5067589;28;20036;-81
2022/07/20 12:32:34;;;;;;;4.45;2.38;;;35.40;28.50;;;;;;5084257;28;20437;-83
2022/07/20 12:35:04;;;;;;;4.38;2.50;;;35.50;29.00;;;;;;5067884;28;20027;-81
2022/07/20 12:37:53;;;;;;;5.07;2.47;;;35.60;29.30;;;;;;5090053;28;20032;-82
2022/07/20 12:40:45;;;;;;;2.97;2.60;;;35.70;28.70;;;;;;5068558;28;20028;-83
2022/07/20 12:43:33;;;;;;;3.60;2.70;;;35.90;28.60;;;;;;5070853;28;20028;-82
2022/07/20 12:46:08;;;;;;;3.15;2.13;;;36.10;27.80;;;;;;5090577;28;20035;-82
2022/07/20 12:48:34;;;;;;;;;;;36.20;28.90;;;;;;5084426;28;20035;-83
2022/07/20 12:51:00;;;;;;;7.47;3.38;;;36.30;27.80;;;;;;5067472;28;19937;-83
2022/07/20 12:53:28;;;;;;;6.13;3.22;;;36.40;27.00;;;;;;5052794;28;20028;-80
2022/07/20 12:55:54;;;;;;;7.13;3.13;;;36.40;27.00;;;;;;5092298;28;20047;-83
2022/07/20 12:58:19;;;;;;;3.63;2.70;;;36.30;27.20;;;;;;5067275;28;20502;-83